Terminal Aerodrome Forecast
Issued by NWS

Home | Current Version | Previous Version | Text Only | Print | Product List | Glossary On
Versions: 1 2 3 4 5 6 7 8 9 10 11 12 13 14 15 16 17 18
000
FTUS43 KDVN 022330
TAFCID
TAF
KCID 022330Z 0300/0324 15006KT P6SM SCT035
     FM031000 15006KT 6SM BR SCT013 BKN035
     FM031500 17011KT P6SM BKN050=

USA.gov is the U.S. government's official web portal to all federal, state and local government web resources and services.